Reno (UNR), Valley Road, Nevada Weather observations

Data are for observation ending at time listed.
 Day   Time    Ave.   Ave.  Ave.  Vector   Max.    Total    Solar   Rl      Baro.   Ave.  
  of    of     Air    Rel.  Wind   Wind    Wind   Precip.   Rad.    in      Pres.   Soil  
Year   Day     Temp.  Hum.  Speed  Dir.    Gust                                     Temp. 
2014   (PST)    F      %     mph   deg.    mph      in.     W/m2    W/m2     mb.     F   
-----------------------------------------------------------------------------------------
 292   19:40   58.1    42    0.5   312      3.0     0.00       0     317    854.6   63.8
 292   19:50   57.0    45    0.3   319      2.0     0.00       0     317    854.7   63.7
 292   20:00   55.8    47    0.2   329      2.2     0.00       0     313    854.9   63.6
 292   20:10   54.8    49    0.7   319      2.5     0.00       0     310    855.1   63.5
 292   20:20   54.7    50    0.9   314      3.7     0.00       0     308    855.2   63.4
 292   20:30   53.4    53    1.9   328      4.3     0.00       0     307    855.3   63.3
 292   20:40   53.0    53    0.3   328      1.8     0.00       0     307    855.4   63.2
 292   20:50   52.8    54    0.2   298      1.8     0.00       0     307    855.5   63.1
 292   21:00   52.7    54    0.2   301      1.8     0.00       0     308    855.5   62.9
 292   21:10   52.3    53    0.0    23      0.6     0.00       0     306    855.5   62.8
 292   21:20   51.2    56    0.0     0      0.0     0.00       0     305    855.5   62.7
 292   21:30   50.9    57    0.3   283      2.2     0.00       0     304    855.7   62.6
 292   21:40   51.0    56    1.2   352      2.5     0.00       0     306    855.8   62.5
 292   21:50   51.1    55    2.0    32      3.0     0.00       0     299    855.9   62.3
 292   22:00   51.2    55    0.9     9      4.0     0.00       0     298    856.0   62.2
 292   22:10   50.7    56    0.4   329      2.3     0.00       0     298    856.0   62.1
 292   22:20   50.1    58    0.0     0      0.0     0.00       0     301    856.0   62.0
 292   22:30   48.9    60    0.0     0      0.0     0.00       0     299    856.0   61.9
 292   22:40   48.4    62    0.0     0      0.0     0.00       0     298    856.0   61.8
 292   22:50   48.1    63    0.0     0      0.0     0.00       0     296    855.9   61.6
 292   23:00   47.6    63    0.7   296      3.0     0.00       0     295    855.9   61.5
 292   23:10   47.6    64    1.0   326      2.7     0.00       0     294    855.9   61.4
 292   23:20   47.3    64    0.0   288      0.9     0.00       0     294    855.8   61.3
 292   23:30   47.0    64    0.0     0      0.0     0.00       0     292    855.9   61.2
 292   23:40   46.7    64    0.5    14      3.8     0.00       0     291    855.9   61.1
 292   23:50   47.0    64    1.3   253      4.9     0.00       0     294    855.9   60.9
 293    0:00   47.0    65    1.1   304      4.2     0.00       0     294    855.9   60.8
 293    0:10   47.7    62    0.7   290      3.7     0.00       0     295    856.0   60.7
 293    0:20   48.5    60    0.8   126      3.0     0.00       0     297    856.1   60.6
 293    0:30   48.2    61    3.2   243      4.9     0.00       0     298    856.1   60.5
 293    0:40   48.6    60    0.7   252      3.3     0.00       0     298    856.1   60.4
 293    0:50   48.2    61    0.0     0      0.0     0.00       0     297    856.0   60.3
 293    1:00   46.7    64    1.1    21      2.5     0.00       0     294    856.0   60.2
 293    1:10   46.3    65    1.1   151      6.2     0.00       0     293    856.0   60.1
 293    1:20   46.2    64    2.6   338      6.2     0.00       0     293    856.1   60.0
 293    1:30   46.2    65    0.8   328      2.8     0.00       0     293    856.2   59.9
 293    1:40   46.2    67    2.4   310      5.0     0.00       0     293    856.2   59.8
 293    1:50   45.6    68    0.2   256      2.3     0.00       0     291    856.2   59.7
 293    2:00   45.0    70    0.0     0      0.0     0.00       0     287    856.2   59.6
 293    2:10   46.3    65    1.6   280      3.8     0.00       0     289    856.1   59.5
 293    2:20   46.0    65    0.0     0      0.0     0.00       0     289    856.1   59.4
 293    2:30   45.1    65    0.6   141      2.9     0.00       0     287    856.1   59.3
 293    2:40   44.6    66    0.4    10      3.5     0.00       0     286    856.3   59.2
 293    2:50   44.3    67    1.6     6      3.5     0.00       0     286    856.3   59.1
 293    3:00   44.2    68    1.4   323      3.9     0.00       0     286    856.4   59.0
 293    3:10   44.0    69    0.6   348      3.4     0.00       0     286    856.4   58.9
 293    3:20   43.8    69    0.0     0      0.0     0.00       0     284    856.4   58.9
 293    3:30   43.6    70    0.0     0      0.0     0.00       0     285    856.4   58.8
 293    3:40   42.5    72    0.0     0      0.0     0.00       0     286    856.4   58.7
 293    3:50   42.6    72    0.0     0      0.0     0.00       0     289    856.5   58.6
 293    4:00   42.3    74    0.0     0      0.0     0.00       0     286    856.5   58.5
 293    4:10   42.3    74    0.0     0      0.0     0.00       0     286    856.5   58.4
 293    4:20   42.1    74    0.6   326      3.3     0.00       0     287    856.4   58.3
 293    4:30   42.1    74    0.7   304      3.0     0.00       0     287    856.4   58.2
 293    4:40   42.8    73    0.6   231      3.3     0.00       0     286    856.3   58.2
 293    4:50   43.2    71    0.0     0      0.0     0.00       0     283    856.3   58.1
 293    5:00   42.1    73    0.5   308      3.1     0.00       0     282    856.4   58.0
 293    5:10   42.0    74    0.0     0      0.0     0.00       0     283    856.4   57.9
 293    5:20   41.6    75    0.5   289      3.7     0.00       0     283    856.3   57.8
 293    5:30   40.8    76    1.0   299      2.8     0.00       0     286    856.3   57.7
 293    5:40   41.8    74    2.0   150      4.3     0.00       0     283    856.4   57.6
 293    5:50   42.7    71    1.6   316      4.9     0.00       0     282    856.4   57.6
 293    6:00   41.6    74    1.4    16      3.4     0.00       0     281    856.3   57.5
 293    6:10   41.4    75    0.9   209      6.0     0.00       2     279    856.3   57.4
 293    6:20   41.9    73    1.1   333      3.5     0.00       5     280    856.2   57.3
 293    6:30   41.7    73    0.0     0      0.0     0.00      10     278    856.3   57.2
 293    6:40   41.7    74    0.0     0      0.0     0.00      29     281    856.3   57.2
 293    6:50   43.5    71    0.6   311      3.8     0.00      57     282    856.2   57.1
 293    7:00   45.7    67    0.0     0      0.0     0.00      92     286    856.2   57.0
 293    7:10   48.9    61    0.0     0      0.0     0.00     128     291    856.2   56.9
 293    7:20   51.9    54    0.0     0      0.0     0.00     166     295    856.3   56.9
 293    7:30   53.7    52    0.0   105      2.3     0.00     202     305    856.3   56.8
 293    7:40   54.3    50    1.2   169      7.4     0.00     228     306    856.2   56.7
 293    7:50   54.8    50    0.6   325      2.7     0.00     244     304    856.1   56.6
 293    8:00   56.7    47    0.0     0      0.0     0.00     270     308    856.0   56.6
 293    8:10   58.0    45    0.5   174      3.1     0.00     303     310    856.0   56.6
 293    8:20   58.9    43    0.6   126      4.1     0.00     337     316    855.8   56.6
 293    8:30   59.0    42    1.7   117      5.2     0.00     351     320    855.7   56.5
 293    8:40   60.7    40    1.7   143      5.2     0.00     380     324    855.5   56.6
 293    8:50   62.6    36    4.4   147     10.9     0.00     405     331    855.4   56.6
 293    9:00   62.7    36    4.0    90      7.8     0.00     431     335    855.2   56.6
 293    9:10   64.3    34    2.8    61      6.3     0.00     454     335    855.1   56.7
 293    9:20   66.8    31    5.5   233     13.7     0.00     479     340    855.0   56.8
 293    9:30   66.9    30    7.2   250     15.7     0.00     503     341    854.7   56.9
 293    9:40   67.8    29    4.7   243     11.5     0.00     525     345    854.6   57.0
 293    9:50   69.1    27    6.2   186     11.9     0.00     545     348    854.4   57.1
 293   10:00   69.2    27    6.6   149     12.0     0.00     565     349    854.3   57.3
 293   10:10   68.7    27    7.4   156     13.0     0.00     582     349    854.2   57.5
 293   10:20   69.9    25    6.1   177     13.4     0.00     574     348    854.0   57.6
 293   10:30   69.4    26    5.9   208     10.9     0.00     548     344    853.9   57.8
 293   10:40   69.6    25    9.9   192     20.0     0.00     614     352    853.6   58.0
 293   10:50   69.8    24   11.6   192     23.7     0.00     643     351    853.4   58.3
 293   11:00   70.1    24   11.5   186     22.6     0.00     654     350    853.2   58.5
 293   11:10   69.6    25   14.2   196     27.0     0.00     658     352    853.0   58.7
 293   11:20   69.8    25   11.3   202     20.4     0.00     668     351    853.0   59.0
 293   11:30   69.9    25   13.8   197     23.4     0.00     673     353    852.9   59.2
 293   11:40   69.9    26   11.2   211     19.2     0.00     678     355    852.9   59.5
 293   11:50   70.3    26   10.5   204     19.6     0.00     684     356    852.8   59.7
 293   12:00   70.7    26   10.9   203     22.0     0.00     668     359    852.7   60.0
 293   12:10   70.5    26   10.2   206     20.8     0.00     679     357    852.5   60.2
 293   12:20   70.7    26   10.9   208     20.0     0.00     680     357    852.3   60.4
 293   12:30   71.0    26    9.3   212     18.2     0.00     651     358    852.2   60.7
 293   12:40   70.7    26    7.7   231     14.8     0.00     670     358    852.1   60.9
 293   12:50   71.4    25    9.0   222     15.4     0.00     661     358    852.0   61.1
 293   13:00   71.4    25    6.9   219     13.1     0.00     597     357    852.0   61.3
 293   13:10   71.2    25    9.2   235     17.3     0.00     625     355    851.9   61.5
 293   13:20   70.9    26    9.5   208     19.3     0.00     586     355    851.9   61.6
 293   13:30   71.1    26    8.8   219     17.3     0.00     606     356    851.8   61.8
 293   13:40   71.5    26    7.7   212     17.0     0.00     523     357    851.8   62.0
 293   13:50   70.3    26   10.1   214     18.7     0.00     491     356    851.7   62.1
 293   14:00   70.1    27   11.8   246     21.7     0.00     586     359    851.7   62.3
 293   14:10   69.9    27   11.2   240     20.8     0.00     467     357    851.7   62.4
 293   14:20   69.4    27   12.0   237     19.0     0.00     426     351    851.7   62.6
 293   14:30   69.4    28   11.4   244     22.0     0.00     524     355    851.7   62.7
 293   14:40   69.2    28    8.9   234     14.1     0.00     413     354    851.8   62.8
 293   14:50   69.3    28    9.1   240     17.5     0.00     366     353    851.7   62.9
 293   15:00   68.9    28    9.6   241     16.4     0.00     402     348    851.5   63.0
 293   15:10   69.2    28    6.8   209     14.0     0.00     379     350    851.5   63.1
 293   15:20   70.1    29    6.2   208     11.3     0.00     362     351    851.5   63.2
 293   15:30   69.4    29    7.2   202     12.2     0.00     344     351    851.4   63.3
 293   15:40   69.3    30    7.4   215     15.1     0.00     313     348    851.3   63.4
 293   15:50   69.5    29    7.7   202     15.7     0.00     276     350    851.3   63.5
 293   16:00   68.7    31    8.0   203     13.6     0.00     241     348    851.2   63.6
 293   16:10   67.2    30    8.4   251     14.8     0.00     210     343    851.2   63.6
 293   16:20   67.9    29    6.7   227     11.9     0.00     177     346    851.3   63.7
 293   16:30   67.2    31    7.3   218     14.0     0.00     150     351    851.4   63.7
 293   16:40   66.7    30    5.0   243     10.5     0.00     108     348    851.5   63.8
 293   16:50   64.7    33    8.6   253     15.3     0.00      51     349    851.6   63.8
 293   17:00   63.3    34    9.9   259     16.3     0.00      16     346    851.7   63.8
 293   17:10   62.4    36   10.3   259     19.0     0.00       4     344    851.9   63.8
 293   17:20   62.0    36    8.9   269     16.6     0.00       2     342    852.0   63.8
 293   17:30   61.4    37    7.3   285     13.7     0.00       1     332    852.0   63.8
 293   17:40   60.9    38    8.2   300     13.2     0.00       0     335    852.0   63.8
 293   17:50   60.7    38    4.7   294     10.5     0.00       0     335    852.0   63.8
 293   18:00   60.2    39    3.1   246      6.1     0.00       0     332    852.1   63.8
 293   18:10   60.2    39    3.9   213      8.6     0.00       0     330    852.1   63.7
 293   18:20   59.9    40    2.9   202     10.8     0.00       0     326    852.1   63.7
 293   18:30   59.6    41    4.3   208     10.5     0.00       0     320    852.2   63.6
 293   18:40   59.5    42    4.7   232     12.6     0.00       0     314    852.2   63.6
 293   18:50   59.2    41    6.6   187     14.2     0.00       0     312    852.3   63.5
 293   19:00   59.2    37    9.3   195     16.4     0.00       0     313    852.5   63.4
 293   19:10   59.3    34    8.3   194     16.4     0.00       0     314    852.8   63.3
 293   19:20   59.1    35    7.5   234     19.4     0.00       0     318    853.1   63.2
 293   19:30   58.5    35    5.3   247     12.1     0.00       0     336    853.1   63.2

Return to Reno (UNR), Nevada graphs page.


Western Regional Climate Center,wrcc@dri.edu